createdAt,value
2023-01-20T00:01:26.414Z,99528.22
2023-01-20T00:03:54.664Z,99530.88
2023-01-20T00:06:21.717Z,99523.50
2023-01-20T00:08:52.286Z,99522.19
2023-01-20T00:11:19.566Z,99518.50
2023-01-20T00:13:47.257Z,99519.78
2023-01-20T00:16:14.255Z,99535.16
2023-01-20T00:18:41.235Z,99533.94
2023-01-20T00:21:10.601Z,99530.75
2023-01-20T00:23:37.999Z,99520.31
2023-01-20T00:26:10.062Z,99517.50
2023-01-20T00:28:37.428Z,99530.94
2023-01-20T00:31:19.603Z,99521.53
2023-01-20T00:33:47.751Z,99533.94
2023-01-20T00:36:15.574Z,99539.50
2023-01-20T00:38:42.522Z,99532.69
2023-01-20T00:41:09.534Z,99524.69
2023-01-20T00:43:36.853Z,99530.38
2023-01-20T00:46:04.287Z,99530.38
2023-01-20T00:48:31.050Z,99538.91
2023-01-20T00:50:57.617Z,99530.31
2023-01-20T00:53:24.162Z,99538.09
2023-01-20T00:55:50.840Z,99531.63
2023-01-20T00:58:17.572Z,99532.16
2023-01-20T01:00:47.268Z,99533.78
2023-01-20T01:03:14.192Z,99549.53
2023-01-20T01:05:40.792Z,99535.34
2023-01-20T01:08:07.615Z,99542.84
2023-01-20T01:10:34.229Z,99542.09
2023-01-20T01:13:02.933Z,99536.16
2023-01-20T01:15:30.051Z,99556.88
2023-01-20T01:17:58.106Z,99563.91
2023-01-20T01:20:25.542Z,99536.59
2023-01-20T01:22:52.035Z,99543.06
2023-01-20T01:25:18.698Z,99529.28
2023-01-20T01:27:45.410Z,99557.53
2023-01-20T01:30:12.314Z,99532.16
2023-01-20T01:32:38.939Z,99532.28
2023-01-20T01:35:05.981Z,99518.81
2023-01-20T01:37:32.535Z,99528.50
2023-01-20T01:39:59.110Z,99544.75
2023-01-20T01:42:26.832Z,99534.38
2023-01-20T01:45:11.797Z,99534.31
2023-01-20T01:47:49.318Z,99538.03
2023-01-20T01:50:24.859Z,99554.84
2023-01-20T01:52:53.830Z,99532.97
2023-01-20T01:55:24.750Z,99543.94
2023-01-20T01:57:51.958Z,99524.41
2023-01-20T02:00:19.937Z,99541.63
2023-01-20T02:02:46.544Z,99541.63
2023-01-20T02:05:16.280Z,99561.66
2023-01-20T02:07:46.296Z,99547.13
2023-01-20T02:10:13.800Z,99557.00
2023-01-20T02:12:42.481Z,99557.06
2023-01-20T02:15:09.694Z,99559.09
2023-01-20T02:17:48.095Z,99564.72
2023-01-20T02:20:17.415Z,99556.84
2023-01-20T02:22:56.819Z,99571.53
2023-01-20T02:25:32.279Z,99553.50
2023-01-20T02:28:23.779Z,99562.94
2023-01-20T02:31:02.467Z,99551.28
2023-01-20T02:33:33.884Z,99562.69
2023-01-20T02:36:09.407Z,99550.97
2023-01-20T02:38:58.320Z,99558.47
2023-01-20T02:42:11.088Z,99555.88
2023-01-20T02:44:59.107Z,99562.88
2023-01-20T02:47:28.549Z,99553.38
2023-01-20T02:50:02.260Z,99554.47
2023-01-20T02:52:34.836Z,99554.72
2023-01-20T02:55:06.425Z,99543.44
2023-01-20T02:57:38.218Z,99535.28
2023-01-20T03:00:12.713Z,99578.16
2023-01-20T03:02:42.317Z,99568.00
2023-01-20T03:05:18.275Z,99550.25
2023-01-20T03:07:45.973Z,99562.34
2023-01-20T03:10:17.673Z,99548.50
2023-01-20T03:12:53.922Z,99545.00
2023-01-20T03:15:24.333Z,99568.94
2023-01-20T03:17:52.304Z,99560.06
2023-01-20T03:20:18.931Z,99574.22
2023-01-20T03:22:45.703Z,99574.81
2023-01-20T03:25:14.507Z,99599.22
2023-01-20T03:27:41.697Z,99571.63
2023-01-20T03:30:18.119Z,99577.03
2023-01-20T03:32:48.100Z,99589.75
2023-01-20T03:35:16.424Z,99579.13
2023-01-20T03:37:44.000Z,99566.47
2023-01-20T03:40:12.110Z,99581.44
2023-01-20T03:42:57.774Z,99582.81
2023-01-20T03:45:47.644Z,99591.69
2023-01-20T03:48:45.781Z,99571.47
2023-01-20T03:51:32.617Z,99587.41
2023-01-20T03:54:12.857Z,99576.97
2023-01-20T03:56:45.486Z,99579.97
2023-01-20T03:59:14.416Z,99584.13
2023-01-20T04:01:44.711Z,99588.13
2023-01-20T04:04:16.155Z,99587.47
2023-01-20T04:06:44.742Z,99578.63
2023-01-20T04:09:17.113Z,99598.13
2023-01-20T04:11:44.622Z,99581.47
2023-01-20T04:14:11.665Z,99585.81
2023-01-20T04:16:38.445Z,99600.09
2023-01-20T04:19:04.995Z,99601.91
2023-01-20T04:21:36.910Z,99592.31
2023-01-20T04:24:16.251Z,99592.13
2023-01-20T04:26:42.791Z,99591.31
2023-01-20T04:29:12.671Z,99602.69
2023-01-20T04:31:39.928Z,99601.69
2023-01-20T04:34:06.626Z,99611.75
2023-01-20T04:36:33.100Z,99604.94
2023-01-20T04:38:59.646Z,99608.88
2023-01-20T04:41:26.229Z,99606.91
2023-01-20T04:43:52.805Z,99608.75
2023-01-20T04:46:19.617Z,99618.94
2023-01-20T04:48:46.239Z,99610.28
2023-01-20T04:51:13.520Z,99618.88
2023-01-20T04:53:40.152Z,99619.38
2023-01-20T04:56:13.702Z,99617.41
2023-01-20T04:58:41.543Z,99622.22
2023-01-20T05:01:08.870Z,99623.09
2023-01-20T05:03:35.539Z,99619.22
2023-01-20T05:06:02.253Z,99623.31
2023-01-20T05:08:28.753Z,99615.31
2023-01-20T05:10:55.240Z,99624.72
2023-01-20T05:13:21.878Z,99623.09
2023-01-20T05:15:49.607Z,99636.44
2023-01-20T05:20:48.456Z,99620.56
2023-01-20T05:23:16.305Z,99640.00
2023-01-20T05:25:43.143Z,99649.13
2023-01-20T05:28:09.676Z,99665.97
2023-01-20T05:30:36.200Z,99656.63
2023-01-20T05:33:02.818Z,99650.59
2023-01-20T05:35:29.405Z,99642.16
2023-01-20T05:37:55.901Z,99651.78
2023-01-20T05:40:22.883Z,99676.22
2023-01-20T05:42:49.454Z,99656.56
2023-01-20T05:45:16.986Z,99672.78
2023-01-20T05:47:43.726Z,99652.53
2023-01-20T05:50:11.860Z,99666.19
2023-01-20T05:52:38.372Z,99673.81
2023-01-20T05:55:05.251Z,99667.59
2023-01-20T05:57:31.893Z,99676.72
2023-01-20T05:59:58.415Z,99675.16
2023-01-20T06:02:24.967Z,99675.38
2023-01-20T06:04:51.569Z,99689.16
2023-01-20T06:07:18.051Z,99694.44
2023-01-20T06:09:44.502Z,99689.41
2023-01-20T06:12:10.998Z,99680.06
2023-01-20T06:14:38.269Z,99668.03
2023-01-20T06:17:04.787Z,99675.31
2023-01-20T06:19:31.350Z,99685.38
2023-01-20T06:21:57.906Z,99685.38
2023-01-20T06:24:24.348Z,99690.00
2023-01-20T06:26:51.391Z,99687.19
2023-01-20T06:29:18.052Z,99698.16
2023-01-20T06:31:44.804Z,99693.47
2023-01-20T06:34:12.545Z,99704.44
2023-01-20T06:36:39.532Z,99688.81
2023-01-20T06:39:06.368Z,99693.25
2023-01-20T06:41:33.076Z,99711.31
2023-01-20T06:43:59.720Z,99697.47
2023-01-20T06:46:26.405Z,99692.38
2023-01-20T06:48:53.150Z,99712.56
2023-01-20T06:51:20.304Z,99717.09
2023-01-20T06:53:47.739Z,99707.13
2023-01-20T06:56:15.939Z,99721.13
2023-01-20T06:58:42.517Z,99714.25
2023-01-20T07:01:13.129Z,99724.19
2023-01-20T07:03:41.978Z,99722.34
2023-01-20T07:06:34.086Z,99725.69
2023-01-20T07:09:01.691Z,99714.19
2023-01-20T07:11:29.133Z,99723.00
2023-01-20T07:13:55.699Z,99725.59
2023-01-20T07:16:22.794Z,99719.69
2023-01-20T07:18:51.027Z,99730.94
2023-01-20T07:21:17.957Z,99740.16
2023-01-20T07:23:44.786Z,99729.16
2023-01-20T07:26:14.445Z,99746.13
2023-01-20T07:28:41.044Z,99728.66
2023-01-20T07:31:13.587Z,99733.66
2023-01-20T07:33:40.806Z,99722.66
2023-01-20T07:36:09.047Z,99733.56
2023-01-20T07:38:36.041Z,99730.16
2023-01-20T07:41:05.559Z,99736.31
2023-01-20T07:43:32.987Z,99729.41
2023-01-20T07:46:01.534Z,99753.25
2023-01-20T07:48:30.613Z,99740.81
2023-01-20T07:50:58.631Z,99749.09
2023-01-20T07:53:25.249Z,99767.59
2023-01-20T07:55:51.769Z,99764.47
2023-01-20T07:58:18.251Z,99759.00
2023-01-20T08:00:44.895Z,99765.09
2023-01-20T08:03:11.418Z,99767.56
2023-01-20T08:05:38.118Z,99772.47
2023-01-20T08:08:05.150Z,99780.63
2023-01-20T08:10:31.704Z,99772.91
2023-01-20T08:12:58.496Z,99786.50
2023-01-20T08:15:25.089Z,99771.78
2023-01-20T08:17:58.352Z,99760.19
2023-01-20T08:20:25.092Z,99774.44
2023-01-20T08:22:51.795Z,99785.84
2023-01-20T08:25:18.283Z,99784.19
2023-01-20T08:27:47.286Z,99790.13
2023-01-20T08:30:14.070Z,99797.19
2023-01-20T08:32:40.578Z,99777.06
2023-01-20T08:35:07.365Z,99789.25
2023-01-20T08:37:36.339Z,99793.88
2023-01-20T08:40:04.735Z,99790.56
2023-01-20T08:42:31.628Z,99780.06
2023-01-20T08:44:58.191Z,99784.88
2023-01-20T08:47:24.765Z,99769.69
2023-01-20T08:49:53.092Z,99790.66
2023-01-20T08:52:19.991Z,99785.00
2023-01-20T08:54:46.581Z,99784.09
2023-01-20T08:57:13.204Z,99785.56
2023-01-20T08:59:39.868Z,99774.69
2023-01-20T09:02:06.795Z,99786.28
2023-01-20T09:04:36.620Z,99793.41
2023-01-20T09:07:04.201Z,99779.81
2023-01-20T09:09:31.512Z,99782.03
2023-01-20T09:11:58.835Z,99776.38
2023-01-20T09:14:25.793Z,99780.41
2023-01-20T09:16:52.618Z,99777.38
2023-01-20T09:19:19.305Z,99785.16
2023-01-20T09:21:46.069Z,99795.56
2023-01-20T09:24:12.618Z,99800.25
2023-01-20T09:26:39.224Z,99792.13
2023-01-20T09:29:10.256Z,99801.00
2023-01-20T09:31:39.780Z,99799.50
2023-01-20T09:34:06.834Z,99806.19
2023-01-20T09:36:33.422Z,99810.00
2023-01-20T09:38:59.961Z,99801.28
2023-01-20T09:41:32.287Z,99808.44
2023-01-20T09:44:24.881Z,99802.63
2023-01-20T09:47:00.126Z,99821.22
2023-01-20T09:49:37.535Z,99824.22
2023-01-20T09:52:33.571Z,99826.97
2023-01-20T09:55:08.100Z,99803.63
2023-01-20T09:57:40.504Z,99814.06
2023-01-20T10:00:15.742Z,99819.97
2023-01-20T10:02:46.486Z,99819.53
2023-01-20T10:05:19.536Z,99801.66
2023-01-20T10:07:52.322Z,99818.31
2023-01-20T10:10:36.302Z,99803.22
2023-01-20T10:13:08.613Z,99816.16
2023-01-20T10:15:37.095Z,99814.59
2023-01-20T10:18:35.774Z,99815.88
2023-01-20T10:21:20.855Z,99808.28
2023-01-20T10:23:58.273Z,99819.59
2023-01-20T10:26:43.553Z,99817.16
2023-01-20T10:29:17.742Z,99812.31
2023-01-20T10:31:56.844Z,99810.88
2023-01-20T10:34:23.425Z,99822.28
2023-01-20T10:36:58.554Z,99827.06
2023-01-20T10:39:40.718Z,99832.81
2023-01-20T10:42:15.338Z,99835.63
2023-01-20T10:44:42.245Z,99846.72
2023-01-20T10:47:33.195Z,99840.09
2023-01-20T10:50:29.842Z,99839.31
2023-01-20T10:53:07.533Z,99845.03
2023-01-20T10:55:58.029Z,99826.97
2023-01-20T10:58:30.014Z,99843.34
2023-01-20T11:01:01.301Z,99854.56
2023-01-20T11:03:31.429Z,99855.75
2023-01-20T11:05:58.063Z,99852.06
2023-01-20T11:08:28.136Z,99876.78
2023-01-20T11:10:59.009Z,99860.16
2023-01-20T11:13:26.006Z,99857.91
2023-01-20T11:15:59.702Z,99856.63
2023-01-20T11:18:31.012Z,99854.47
2023-01-20T11:21:04.683Z,99867.59
2023-01-20T11:23:47.509Z,99876.59
2023-01-20T11:26:33.301Z,99867.22
2023-01-20T11:29:24.115Z,99889.75
2023-01-20T11:31:53.709Z,99875.31
2023-01-20T11:34:23.489Z,99879.41
2023-01-20T11:36:51.975Z,99881.63
2023-01-20T11:39:30.939Z,99877.47
2023-01-20T11:42:20.355Z,99900.72
2023-01-20T11:44:49.143Z,99889.31
2023-01-20T11:47:30.209Z,99891.31
2023-01-20T11:50:09.169Z,99887.28
2023-01-20T11:52:35.698Z,99888.91
2023-01-20T11:55:14.555Z,99898.41
2023-01-20T11:57:56.852Z,99892.38
2023-01-20T12:00:26.619Z,99898.75
2023-01-20T12:03:24.581Z,99905.84
2023-01-20T12:06:17.781Z,99913.09
2023-01-20T12:08:55.996Z,99916.53
2023-01-20T12:11:28.384Z,99918.31
2023-01-20T12:14:10.689Z,99921.34
2023-01-20T12:16:39.252Z,99924.06
2023-01-20T12:19:14.520Z,99920.94
2023-01-20T12:21:46.855Z,99927.53
2023-01-20T12:24:20.108Z,99933.53
2023-01-20T12:26:46.900Z,99944.88
2023-01-20T12:29:25.608Z,99935.31
2023-01-20T12:31:52.423Z,99935.19
2023-01-20T12:34:27.351Z,99934.66
2023-01-20T12:37:12.342Z,99925.50
2023-01-20T12:39:46.014Z,99934.94
2023-01-20T12:42:34.092Z,99935.69
2023-01-20T12:45:28.916Z,99935.53
2023-01-20T12:48:01.077Z,99945.81
2023-01-20T12:50:27.538Z,99953.59
2023-01-20T12:53:13.024Z,99959.47
2023-01-20T12:55:58.260Z,99962.44
2023-01-20T12:58:45.991Z,99954.25
2023-01-20T13:01:26.477Z,99948.25
2023-01-20T13:04:31.609Z,99951.94
2023-01-20T13:07:24.117Z,99960.69
2023-01-20T13:10:09.051Z,99980.59
2023-01-20T13:13:01.055Z,99946.09
2023-01-20T13:15:35.204Z,99966.03
2023-01-20T13:18:41.911Z,99963.28
2023-01-20T13:21:13.708Z,99965.88
2023-01-20T13:23:40.266Z,99964.94
2023-01-20T13:26:07.938Z,99984.03
2023-01-20T13:28:34.923Z,99967.91
2023-01-20T13:31:36.710Z,99970.91
2023-01-20T13:34:26.351Z,99979.91
2023-01-20T13:37:04.766Z,99966.00
2023-01-20T13:39:31.752Z,99959.97
2023-01-20T13:41:58.277Z,99959.28
2023-01-20T13:44:40.310Z,99956.44
2023-01-20T13:47:11.046Z,99961.19
2023-01-20T13:49:51.768Z,99968.16
2023-01-20T13:52:52.167Z,99957.00
2023-01-20T13:55:29.742Z,99975.78
2023-01-20T13:57:56.738Z,99969.75
2023-01-20T14:00:23.605Z,99979.03
2023-01-20T14:02:50.602Z,99974.16
2023-01-20T14:05:29.043Z,99990.09
2023-01-20T14:07:56.713Z,99989.41
2023-01-20T14:10:23.331Z,99999.75
2023-01-20T14:12:50.321Z,99992.66
2023-01-20T14:15:29.366Z,100008.31
2023-01-20T14:17:58.102Z,100000.94
2023-01-20T14:20:26.313Z,100006.50
2023-01-20T14:22:53.766Z,100002.53
2023-01-20T14:25:26.891Z,100007.97
2023-01-20T14:27:53.470Z,100010.19
2023-01-20T14:30:23.850Z,100004.75
2023-01-20T14:32:52.459Z,100005.69
2023-01-20T14:35:26.806Z,100028.00
2023-01-20T14:37:54.031Z,100012.22
2023-01-20T14:40:26.450Z,100004.94
2023-01-20T14:42:57.241Z,100009.44
2023-01-20T14:45:25.552Z,100020.66
2023-01-20T14:47:52.812Z,100020.94
2023-01-20T14:50:20.294Z,100012.47
2023-01-20T14:52:47.600Z,100022.00
2023-01-20T14:55:33.002Z,100046.19
2023-01-20T14:58:01.187Z,100029.69
2023-01-20T15:00:30.618Z,100016.88
2023-01-20T15:03:25.416Z,100022.75
2023-01-20T15:06:24.949Z,100021.50
2023-01-20T15:09:06.084Z,100024.34
2023-01-20T15:11:33.957Z,100024.47
2023-01-20T15:14:00.794Z,100023.34
2023-01-20T15:16:30.070Z,100024.59
2023-01-20T15:19:15.071Z,100038.38
2023-01-20T15:21:44.765Z,100036.47
2023-01-20T15:24:33.443Z,100042.66
2023-01-20T15:27:02.368Z,100052.94
2023-01-20T15:29:35.923Z,100049.66
2023-01-20T15:32:10.080Z,100047.09
2023-01-20T15:34:36.678Z,100050.44
2023-01-20T15:37:11.368Z,100067.03
2023-01-20T15:39:37.868Z,100056.31
2023-01-20T15:42:06.327Z,100063.69
2023-01-20T15:44:32.963Z,100056.19
2023-01-20T15:46:59.544Z,100072.09
2023-01-20T15:49:26.064Z,100069.25
2023-01-20T15:51:53.082Z,100069.06
2023-01-20T15:54:19.671Z,100067.44
2023-01-20T15:56:46.167Z,100071.91
2023-01-20T15:59:14.814Z,100087.31
2023-01-20T16:01:41.527Z,100081.06
2023-01-20T16:04:09.261Z,100084.34
2023-01-20T16:06:37.386Z,100082.72
2023-01-20T16:09:15.553Z,100092.44
2023-01-20T16:11:42.181Z,100091.16
2023-01-20T16:14:08.833Z,100086.25
2023-01-20T16:16:35.391Z,100094.72
2023-01-20T16:19:02.308Z,100094.44
2023-01-20T16:21:28.800Z,100101.84
2023-01-20T16:23:55.311Z,100106.06
2023-01-20T16:26:25.140Z,100099.19
2023-01-20T16:28:53.692Z,100115.75
2023-01-20T16:31:20.888Z,100130.59
2023-01-20T16:33:47.572Z,100122.25
2023-01-20T16:36:17.546Z,100111.19
2023-01-20T16:38:44.772Z,100118.00
2023-01-20T16:41:21.810Z,100125.53
2023-01-20T16:43:49.201Z,100121.16
2023-01-20T16:46:16.853Z,100126.66
2023-01-20T16:48:43.837Z,100127.41
2023-01-20T16:51:15.466Z,100137.28
2023-01-20T16:53:42.305Z,100127.38
2023-01-20T16:56:16.548Z,100127.63
2023-01-20T16:58:43.417Z,100136.84
2023-01-20T17:01:10.122Z,100145.66
2023-01-20T17:03:36.773Z,100151.81
2023-01-20T17:06:11.945Z,100150.22
2023-01-20T17:08:38.681Z,100136.84
2023-01-20T17:11:05.630Z,100144.34
2023-01-20T17:13:32.283Z,100147.06
2023-01-20T17:15:58.975Z,100158.13
2023-01-20T17:18:27.633Z,100161.47
2023-01-20T17:20:54.096Z,100157.78
2023-01-20T17:23:20.618Z,100163.09
2023-01-20T17:25:47.192Z,100171.69
2023-01-20T17:28:13.945Z,100169.34
2023-01-20T17:30:41.174Z,100183.81
2023-01-20T17:33:07.685Z,100179.22
2023-01-20T17:35:34.318Z,100181.34
2023-01-20T17:38:01.202Z,100176.16
2023-01-20T17:40:27.739Z,100183.03
2023-01-20T17:42:54.281Z,100184.91
2023-01-20T17:45:20.867Z,100185.03
2023-01-20T17:47:50.603Z,100192.94
2023-01-20T17:50:17.736Z,100183.66
2023-01-20T17:52:44.472Z,100188.97
2023-01-20T17:55:10.997Z,100195.34
2023-01-20T17:57:37.491Z,100198.34
2023-01-20T18:00:06.836Z,100214.03
2023-01-20T18:02:33.559Z,100211.13
2023-01-20T18:05:00.083Z,100230.69
2023-01-20T18:07:26.827Z,100213.34
2023-01-20T18:09:53.343Z,100219.47
2023-01-20T18:12:19.980Z,100214.88
2023-01-20T18:14:46.614Z,100232.53
2023-01-20T18:17:13.478Z,100229.34
2023-01-20T18:19:39.937Z,100226.63
2023-01-20T18:22:06.455Z,100229.00
2023-01-20T18:24:33.229Z,100232.75
2023-01-20T18:26:59.940Z,100237.69
2023-01-20T18:29:26.651Z,100234.66
2023-01-20T18:31:53.342Z,100230.16
2023-01-20T18:34:19.972Z,100242.41
2023-01-20T18:36:47.248Z,100248.19
2023-01-20T18:39:25.205Z,100256.66
2023-01-20T18:41:52.136Z,100263.84
2023-01-20T18:44:19.752Z,100254.78
2023-01-20T18:46:46.759Z,100262.06
2023-01-20T18:49:15.002Z,100260.06
2023-01-20T18:51:41.927Z,100267.13
2023-01-20T18:54:12.210Z,100264.78
2023-01-20T18:56:39.127Z,100261.50
2023-01-20T18:59:06.808Z,100287.59
2023-01-20T19:01:36.335Z,100269.94
2023-01-20T19:04:04.580Z,100275.25
2023-01-20T19:06:34.626Z,100273.00
2023-01-20T19:09:01.829Z,100278.78
2023-01-20T19:11:33.584Z,100291.81
2023-01-20T19:14:00.159Z,100284.78
2023-01-20T19:16:31.560Z,100295.00
2023-01-20T19:19:03.525Z,100294.88
2023-01-20T19:21:31.351Z,100290.53
2023-01-20T19:24:01.240Z,100300.53
2023-01-20T19:26:28.613Z,100298.50
2023-01-20T19:29:00.655Z,100299.84
2023-01-20T19:31:27.206Z,100308.53
2023-01-20T19:33:53.930Z,100310.50
2023-01-20T19:36:21.151Z,100315.22
2023-01-20T19:38:47.633Z,100321.44
2023-01-20T19:41:17.310Z,100315.91
2023-01-20T19:43:44.481Z,100326.59
2023-01-20T19:46:13.506Z,100320.75
2023-01-20T19:48:40.993Z,100331.78
2023-01-20T19:51:12.929Z,100332.22
2023-01-20T19:53:40.077Z,100333.06
2023-01-20T19:56:09.453Z,100344.84
2023-01-20T19:58:36.740Z,100335.53
2023-01-20T20:01:18.202Z,100343.97
2023-01-20T20:03:44.965Z,100341.50
2023-01-20T20:06:28.681Z,100349.84
2023-01-20T20:09:00.869Z,100333.88
2023-01-20T20:11:28.695Z,100345.50
2023-01-20T20:14:01.719Z,100343.47
2023-01-20T20:16:30.898Z,100355.91
2023-01-20T20:18:58.160Z,100344.31
2023-01-20T20:21:24.868Z,100350.63
2023-01-20T20:23:56.877Z,100355.34
2023-01-20T20:26:30.539Z,100353.66
2023-01-20T20:28:59.699Z,100353.56
2023-01-20T20:31:27.140Z,100364.44
2023-01-20T20:33:53.866Z,100367.63
2023-01-20T20:36:20.406Z,100370.44
2023-01-20T20:38:50.929Z,100391.34
2023-01-20T20:41:17.943Z,100370.41
2023-01-20T20:43:44.446Z,100367.00
2023-01-20T20:46:14.382Z,100373.00
2023-01-20T20:48:41.048Z,100376.53
2023-01-20T20:51:10.869Z,100374.59
2023-01-20T20:53:37.767Z,100378.81
2023-01-20T20:56:09.869Z,100383.56
2023-01-20T20:58:36.776Z,100387.13
2023-01-20T21:01:03.588Z,100382.56
2023-01-20T21:03:31.063Z,100392.94
2023-01-20T21:05:57.754Z,100398.22
2023-01-20T21:08:25.394Z,100395.63
2023-01-20T21:10:52.604Z,100405.97
2023-01-20T21:13:19.504Z,100401.94
2023-01-20T21:15:58.023Z,100400.19
2023-01-20T21:18:24.592Z,100397.53
2023-01-20T21:20:58.879Z,100404.56
2023-01-20T21:23:26.951Z,100409.28
2023-01-20T21:25:54.155Z,100401.16
2023-01-20T21:28:20.664Z,100406.53
2023-01-20T21:30:47.231Z,100406.84
2023-01-20T21:33:13.962Z,100423.16
2023-01-20T21:35:40.575Z,100418.00
2023-01-20T21:38:07.096Z,100413.88
2023-01-20T21:40:34.862Z,100421.91
2023-01-20T21:43:01.565Z,100426.91
2023-01-20T21:45:28.199Z,100425.16
2023-01-20T21:47:55.986Z,100416.44
2023-01-20T21:50:22.595Z,100426.09
2023-01-20T21:52:49.152Z,100424.75
2023-01-20T21:55:19.392Z,100421.13
2023-01-20T21:57:46.874Z,100430.84
2023-01-20T22:00:14.150Z,100438.28
2023-01-20T22:02:42.955Z,100436.22
2023-01-20T22:05:09.706Z,100434.16
2023-01-20T22:07:36.227Z,100431.88
2023-01-20T22:10:03.460Z,100442.41
2023-01-20T22:12:31.087Z,100445.72
2023-01-20T22:14:57.968Z,100450.69
2023-01-20T22:17:24.532Z,100439.72
2023-01-20T22:19:51.077Z,100454.91
2023-01-20T22:22:18.615Z,100456.88
2023-01-20T22:24:45.233Z,100461.94
2023-01-20T22:27:11.779Z,100460.78
2023-01-20T22:29:38.403Z,100472.97
2023-01-20T22:32:05.035Z,100462.22
2023-01-20T22:34:31.825Z,100467.28
2023-01-20T22:36:59.586Z,100470.38
2023-01-20T22:39:26.562Z,100473.19
2023-01-20T22:41:53.128Z,100470.50
2023-01-20T22:44:19.739Z,100467.50
2023-01-20T22:46:46.350Z,100471.94
2023-01-20T22:49:12.811Z,100489.38
2023-01-20T22:51:39.487Z,100469.56
2023-01-20T22:54:06.314Z,100501.75
2023-01-20T22:56:33.198Z,100482.16
2023-01-20T22:59:00.730Z,100480.41
2023-01-20T23:01:32.672Z,100489.06
2023-01-20T23:04:01.557Z,100490.50
2023-01-20T23:06:30.368Z,100482.66
2023-01-20T23:08:56.888Z,100488.44
2023-01-20T23:11:23.538Z,100496.50
2023-01-20T23:13:51.049Z,100492.25
2023-01-20T23:16:20.516Z,100482.34
2023-01-20T23:18:47.069Z,100486.06
2023-01-20T23:21:14.639Z,100496.66
2023-01-20T23:23:41.358Z,100499.16
2023-01-20T23:26:18.673Z,100478.13
2023-01-20T23:28:46.597Z,100487.81
2023-01-20T23:31:16.256Z,100489.47
2023-01-20T23:33:44.174Z,100499.34
2023-01-20T23:36:17.041Z,100500.19
2023-01-20T23:38:44.440Z,100509.91
2023-01-20T23:41:12.160Z,100507.31
2023-01-20T23:43:38.723Z,100521.34
2023-01-20T23:46:06.238Z,100516.47
2023-01-20T23:48:34.049Z,100513.41
2023-01-20T23:51:01.128Z,100513.69
2023-01-20T23:53:31.080Z,100519.69
2023-01-20T23:56:02.567Z,100523.00
2023-01-20T23:58:29.731Z,100525.03
